Time;durP1;ratioP1;P1;durP2;ratioP2;P2;SDS_P1;SDS_P2;PMS_P1;PMS_P2;Temp;Humidity;BMP_temperature;BMP_pressure;BME280_temperature;BME280_humidity;BME280_pressure;Samples;Min_cycle;Max_cycle;Signal;HPM_P1;HPM_P2
2023/06/02 00:01:05;;;;;;;7.43;6.57;;;18.90;96.40;;;;;;6299877;28;20230;-63
2023/06/02 00:04:08;;;;;;;8.27;6.37;;;18.80;96.80;;;;;;6299321;28;20222;-62
2023/06/02 00:07:13;;;;;;;6.77;6.27;;;18.80;96.70;;;;;;6299030;28;20557;-62
2023/06/02 00:10:16;;;;;;;6.23;5.73;;;18.80;96.90;;;;;;6298178;28;20231;-62
2023/06/02 00:13:20;;;;;;;6.70;6.10;;;18.80;96.90;;;;;;6298351;28;20264;-62
2023/06/02 00:16:23;;;;;;;10.10;6.70;;;18.80;97.10;;;;;;6299127;28;20241;-62
2023/06/02 00:19:26;;;;;;;7.47;6.77;;;18.60;97.10;;;;;;6298671;28;20246;-62
2023/06/02 00:22:32;;;;;;;7.20;6.50;;;18.60;97.40;;;;;;6299026;28;20244;-62
2023/06/02 00:25:35;;;;;;;7.63;6.90;;;18.50;97.50;;;;;;6298791;28;20692;-62
2023/06/02 00:28:38;;;;;;;6.80;6.20;;;18.50;97.60;;;;;;6298867;28;20223;-62
2023/06/02 00:31:42;;;;;;;7.47;6.87;;;18.50;97.80;;;;;;6298919;28;20223;-62
2023/06/02 00:34:45;;;;;;;7.00;6.40;;;18.40;97.90;;;;;;6298935;28;20488;-62
2023/06/02 00:37:50;;;;;;;7.50;6.80;;;18.50;98.10;;;;;;6298808;28;20509;-62
2023/06/02 00:40:53;;;;;;;7.27;6.57;;;18.40;98.00;;;;;;6298797;28;20250;-63
2023/06/02 00:43:56;;;;;;;7.07;6.43;;;18.40;98.10;;;;;;6299100;28;20497;-63
2023/06/02 00:46:59;;;;;;;6.83;6.33;;;18.40;98.20;;;;;;6298614;28;20293;-63
2023/06/02 00:50:03;;;;;;;7.37;6.73;;;18.40;98.30;;;;;;6298551;28;20743;-63
2023/06/02 00:53:07;;;;;;;11.00;7.20;;;18.20;98.40;;;;;;6299039;28;20317;-63
2023/06/02 00:56:13;;;;;;;7.20;6.50;;;18.20;98.50;;;;;;6302189;28;20968;-62
2023/06/02 00:59:17;;;;;;;8.87;6.27;;;18.20;98.50;;;;;;6303193;28;20384;-63
2023/06/02 01:02:20;;;;;;;8.10;5.97;;;18.20;98.60;;;;;;6303430;28;20553;-62
2023/06/02 01:05:23;;;;;;;6.20;5.70;;;18.20;98.60;;;;;;6304689;28;20249;-63
2023/06/02 01:08:29;;;;;;;8.43;7.63;;;18.20;98.50;;;;;;6319084;28;20241;-62
2023/06/02 01:11:33;;;;;;;7.77;7.17;;;18.20;98.80;;;;;;6310604;28;20758;-62
2023/06/02 01:14:36;;;;;;;8.60;7.07;;;18.10;98.70;;;;;;6302706;28;20667;-62
2023/06/02 01:17:45;;;;;;;7.00;6.10;;;18.00;98.80;;;;;;6303197;28;20226;-62
2023/06/02 01:20:52;;;;;;;7.87;7.17;;;18.00;99.00;;;;;;6303020;28;20292;-62
2023/06/02 01:23:59;;;;;;;7.13;6.53;;;18.00;99.20;;;;;;6302879;28;20242;-62
2023/06/02 01:27:06;;;;;;;7.93;7.23;;;17.90;99.20;;;;;;6302901;28;20544;-62
2023/06/02 01:30:09;;;;;;;7.37;6.70;;;17.90;99.30;;;;;;6303013;28;20468;-62
2023/06/02 01:33:18;;;;;;;7.27;6.57;;;18.00;99.40;;;;;;6302620;28;20623;-62
2023/06/02 01:36:23;;;;;;;8.10;7.37;;;17.90;99.30;;;;;;6303011;28;20574;-62
2023/06/02 01:39:30;;;;;;;7.77;7.07;;;17.90;99.40;;;;;;6302358;28;20483;-62
2023/06/02 01:42:35;;;;;;;8.67;6.87;;;17.80;99.70;;;;;;6302463;28;20231;-64
2023/06/02 01:45:41;;;;;;;7.83;7.03;;;17.70;99.60;;;;;;6302168;28;20237;-63
2023/06/02 01:48:44;;;;;;;7.20;6.60;;;17.60;99.70;;;;;;6293274;28;20237;-62
2023/06/02 01:51:48;;;;;;;7.27;6.67;;;17.60;99.90;;;;;;6302408;28;20511;-63
2023/06/02 01:54:52;;;;;;;7.73;6.93;;;17.50;99.90;;;;;;6302152;28;20469;-63
2023/06/02 01:57:55;;;;;;;7.47;6.70;;;17.50;99.90;;;;;;6301967;28;20251;-63
2023/06/02 02:01:00;;;;;;;6.73;6.23;;;17.50;99.90;;;;;;6302029;28;20479;-63
2023/06/02 02:04:03;;;;;;;6.47;5.97;;;17.50;99.90;;;;;;6301848;28;20457;-63
2023/06/02 02:07:08;;;;;;;7.33;6.63;;;17.40;99.90;;;;;;6300972;28;20469;-63
2023/06/02 02:10:13;;;;;;;9.47;7.30;;;17.40;99.90;;;;;;6301873;28;20931;-62
2023/06/02 02:13:16;;;;;;;7.77;7.17;;;17.40;99.90;;;;;;6301869;28;20647;-62
2023/06/02 02:16:20;;;;;;;11.53;8.00;;;17.30;99.90;;;;;;6301906;28;20469;-62
2023/06/02 02:19:23;;;;;;;8.10;7.40;;;17.30;99.90;;;;;;6302027;28;20526;-63
2023/06/02 02:22:26;;;;;;;8.20;7.60;;;17.30;99.90;;;;;;6301732;28;20480;-63
2023/06/02 02:25:31;;;;;;;7.70;7.03;;;17.30;99.90;;;;;;6301919;28;20469;-63
2023/06/02 02:28:34;;;;;;;9.57;7.00;;;17.20;99.90;;;;;;6301454;28;20591;-63
2023/06/02 02:31:37;;;;;;;8.10;7.33;;;17.20;99.90;;;;;;6301060;28;21012;-63
2023/06/02 02:34:40;;;;;;;8.07;7.47;;;17.10;99.90;;;;;;6301525;28;20527;-63
2023/06/02 02:37:44;;;;;;;8.50;7.70;;;17.10;99.90;;;;;;6300934;28;20476;-63
2023/06/02 02:40:51;;;;;;;8.90;8.00;;;17.10;99.90;;;;;;6301110;28;20531;-63
2023/06/02 02:43:54;;;;;;;7.30;6.60;;;17.00;99.90;;;;;;6301598;28;20442;-63
2023/06/02 02:46:58;;;;;;;8.07;7.37;;;17.00;99.90;;;;;;6301031;28;20441;-63
2023/06/02 02:50:02;;;;;;;8.47;7.57;;;17.00;99.90;;;;;;6296555;28;20610;-63
2023/06/02 02:53:05;;;;;;;8.60;7.80;;;17.00;99.90;;;;;;6300745;28;20472;-63
2023/06/02 02:56:10;;;;;;;9.30;8.53;;;17.00;99.90;;;;;;6300154;28;20469;-63
2023/06/02 02:59:15;;;;;;;8.17;7.50;;;17.00;99.90;;;;;;6300685;28;20575;-63
2023/06/02 03:02:18;;;;;;;8.73;7.83;;;17.00;99.90;;;;;;6300400;28;20983;-63
2023/06/02 03:05:21;;;;;;;8.87;8.00;;;17.00;99.90;;;;;;6300508;28;20626;-63
2023/06/02 03:08:25;;;;;;;9.93;8.93;;;16.90;99.90;;;;;;6300280;28;20817;-63
2023/06/02 03:11:29;;;;;;;8.37;7.60;;;16.90;99.90;;;;;;6300315;28;20488;-63
2023/06/02 03:14:32;;;;;;;9.40;8.50;;;16.90;99.90;;;;;;6300299;28;20477;-63
2023/06/02 03:17:37;;;;;;;9.07;8.27;;;16.90;99.90;;;;;;6300371;28;20595;-62
2023/06/02 03:20:41;;;;;;;9.03;8.23;;;16.90;99.90;;;;;;6300323;28;20979;-62
2023/06/02 03:23:44;;;;;;;8.10;7.40;;;16.90;99.90;;;;;;6300328;28;20473;-63
2023/06/02 03:26:51;;;;;;;11.03;8.30;;;16.90;99.90;;;;;;6300823;28;20465;-63
2023/06/02 03:29:55;;;;;;;10.17;9.10;;;16.90;99.90;;;;;;6299987;28;20596;-63
2023/06/02 03:32:59;;;;;;;8.80;8.10;;;16.90;99.90;;;;;;6310589;28;20465;-63
2023/06/02 03:36:02;;;;;;;10.17;9.17;;;17.00;99.90;;;;;;6317818;28;20483;-63
2023/06/02 03:39:07;;;;;;;9.07;8.17;;;17.00;99.90;;;;;;6314239;28;20473;-64
2023/06/02 03:42:11;;;;;;;9.73;7.80;;;17.10;99.90;;;;;;6299937;28;20808;-63
2023/06/02 03:45:15;;;;;;;9.60;8.63;;;17.20;99.90;;;;;;6299732;28;20614;-63
2023/06/02 03:48:18;;;;;;;9.90;8.63;;;17.20;99.90;;;;;;6299639;28;20465;-63
2023/06/02 03:51:21;;;;;;;9.80;8.80;;;17.30;99.90;;;;;;6299485;28;20933;-63
2023/06/02 03:54:24;;;;;;;10.73;9.67;;;17.30;99.90;;;;;;6299776;28;21063;-63
2023/06/02 03:57:29;;;;;;;10.23;8.47;;;17.30;99.90;;;;;;6299613;28;20964;-63
2023/06/02 04:00:32;;;;;;;8.97;8.07;;;17.30;99.90;;;;;;6300013;28;20465;-63
2023/06/02 04:03:37;;;;;;;12.97;8.87;;;17.40;99.90;;;;;;6299953;28;20556;-62
2023/06/02 04:06:41;;;;;;;10.30;9.20;;;17.40;99.90;;;;;;6299728;28;20465;-63
2023/06/02 04:09:45;;;;;;;10.27;8.80;;;17.50;99.90;;;;;;6299664;28;20514;-63
2023/06/02 04:12:49;;;;;;;11.13;9.30;;;17.50;99.90;;;;;;6299801;28;20469;-63
2023/06/02 04:15:52;;;;;;;10.93;8.50;;;17.50;99.90;;;;;;6299191;28;20485;-63
2023/06/02 04:18:55;;;;;;;11.27;8.90;;;17.60;99.90;;;;;;6299240;28;20475;-63
2023/06/02 04:21:59;;;;;;;9.90;8.70;;;17.60;99.90;;;;;;6299787;28;20502;-63
2023/06/02 04:25:02;;;;;;;10.67;8.60;;;17.70;99.90;;;;;;6299258;28;20465;-63
2023/06/02 04:28:07;;;;;;;10.00;9.00;;;17.80;99.90;;;;;;6299040;28;20479;-63
2023/06/02 04:31:11;;;;;;;9.20;7.93;;;17.80;99.90;;;;;;6302773;28;20469;-63
2023/06/02 04:34:15;;;;;;;12.33;8.53;;;18.00;99.90;;;;;;6304125;28;20603;-64
2023/06/02 04:37:18;;;;;;;13.30;9.70;;;18.00;99.90;;;;;;6303702;28;20461;-63
2023/06/02 04:40:21;;;;;;;10.40;9.40;;;18.20;99.90;;;;;;6303782;28;20697;-63
2023/06/02 04:43:26;;;;;;;11.60;9.30;;;18.20;99.80;;;;;;6303440;28;20464;-63
2023/06/02 04:46:29;;;;;;;10.33;9.33;;;18.40;99.60;;;;;;6303905;28;20219;-64
2023/06/02 04:49:32;;;;;;;11.10;9.27;;;18.40;99.50;;;;;;6303960;28;20226;-63
2023/06/02 04:52:38;;;;;;;11.83;10.50;;;18.50;99.30;;;;;;6304104;28;20238;-63
2023/06/02 04:55:44;;;;;;;10.40;9.20;;;18.60;99.20;;;;;;6303667;28;20227;-65
2023/06/02 04:58:48;;;;;;;11.93;10.47;;;18.80;99.00;;;;;;6293680;28;20219;-64
2023/06/02 05:01:51;;;;;;;12.43;9.77;;;18.90;98.70;;;;;;6303291;28;20526;-64
2023/06/02 05:04:55;;;;;;;9.83;8.80;;;19.00;98.50;;;;;;6303427;28;20214;-64
2023/06/02 05:07:58;;;;;;;10.63;9.63;;;19.20;98.30;;;;;;6303573;28;20199;-65
2023/06/02 05:11:01;;;;;;;10.77;9.70;;;19.30;98.10;;;;;;6303381;28;20538;-64
2023/06/02 05:14:05;;;;;;;10.57;9.53;;;19.40;97.80;;;;;;6303040;28;20617;-64
2023/06/02 05:17:09;;;;;;;10.50;9.50;;;19.60;97.50;;;;;;6303025;28;20628;-64
2023/06/02 05:20:12;;;;;;;9.73;8.73;;;19.70;97.20;;;;;;6302607;28;20697;-64
2023/06/02 05:23:16;;;;;;;11.50;9.07;;;19.90;97.00;;;;;;6302627;28;20663;-64
2023/06/02 05:26:19;;;;;;;16.43;10.83;;;20.00;96.90;;;;;;6302679;28;20226;-64
2023/06/02 05:29:23;;;;;;;11.47;10.10;;;20.10;96.40;;;;;;6302671;28;20234;-64
2023/06/02 05:32:27;;;;;;;10.67;9.50;;;20.10;96.10;;;;;;6302987;28;20238;-64
2023/06/02 05:35:30;;;;;;;12.73;9.97;;;20.20;95.90;;;;;;6302533;28;20234;-64
2023/06/02 05:38:33;;;;;;;14.20;10.20;;;20.30;96.00;;;;;;6303163;28;20227;-64
2023/06/02 05:41:36;;;;;;;12.50;10.03;;;20.40;95.60;;;;;;6302034;28;20672;-64
2023/06/02 05:44:41;;;;;;;10.00;9.00;;;20.60;95.60;;;;;;6302661;28;20231;-64
2023/06/02 05:47:44;;;;;;;13.63;10.90;;;20.80;95.20;;;;;;6302609;28;20230;-64
2023/06/02 05:50:47;;;;;;;12.70;10.93;;;21.00;94.80;;;;;;6302639;28;20549;-64
2023/06/02 05:53:51;;;;;;;11.70;10.23;;;21.10;94.50;;;;;;6302102;28;20217;-63
2023/06/02 05:56:54;;;;;;;11.77;9.53;;;21.30;93.90;;;;;;6301661;28;20231;-64
2023/06/02 06:00:01;;;;;;;11.83;10.57;;;21.50;93.20;;;;;;6301434;28;20254;-63
2023/06/02 06:03:04;;;;;;;14.33;10.60;;;21.80;93.10;;;;;;6297546;28;20223;-64
2023/06/02 06:06:08;;;;;;;11.47;10.27;;;22.20;92.30;;;;;;6311790;28;20247;-63
2023/06/02 06:09:12;;;;;;;11.00;9.30;;;22.70;91.70;;;;;;6318235;28;20695;-63
2023/06/02 06:12:15;;;;;;;10.93;9.93;;;23.20;91.00;;;;;;6302452;28;20281;-63
2023/06/02 06:15:19;;;;;;;11.03;9.77;;;23.70;89.70;;;;;;6301927;28;20232;-63
2023/06/02 06:18:23;;;;;;;10.80;9.80;;;24.30;87.40;;;;;;6301798;28;20317;-63
2023/06/02 06:21:26;;;;;;;10.20;9.10;;;24.80;85.00;;;;;;6301272;28;20234;-64
2023/06/02 06:24:29;;;;;;;10.97;9.80;;;25.60;81.90;;;;;;6301756;28;20227;-64
2023/06/02 06:27:32;;;;;;;12.27;10.27;;;26.10;79.40;;;;;;6301652;28;20236;-64
2023/06/02 06:30:39;;;;;;;10.17;9.17;;;27.10;76.30;;;;;;6301827;28;20226;-64
2023/06/02 06:33:43;;;;;;;11.77;10.57;;;27.70;73.50;;;;;;6300358;28;20218;-64
2023/06/02 06:36:48;;;;;;;13.10;9.97;;;28.20;70.50;;;;;;6301379;28;20678;-64
2023/06/02 06:39:51;;;;;;;10.47;9.47;;;28.80;67.80;;;;;;6301394;28;20241;-64
2023/06/02 06:42:54;;;;;;;10.13;9.23;;;29.30;65.40;;;;;;6301332;28;20262;-63
2023/06/02 06:45:59;;;;;;;11.10;8.80;;;29.90;62.60;;;;;;6301483;28;20648;-64
2023/06/02 06:49:02;;;;;;;11.27;10.23;;;30.80;59.20;;;;;;6301341;28;20316;-66
2023/06/02 06:52:06;;;;;;;11.40;10.25;;;31.50;56.40;;;;;;6300903;28;20226;-65
2023/06/02 06:55:09;;;;;;;10.43;9.43;;;31.60;54.40;;;;;;6300872;28;20229;-63
2023/06/02 06:58:13;;;;;;;10.07;9.15;;;32.00;52.90;;;;;;6301073;28;20245;-64
2023/06/02 07:01:17;;;;;;;11.00;8.20;;;32.00;51.80;;;;;;6300642;28;20274;-64
2023/06/02 07:04:21;;;;;;;10.07;9.18;;;32.50;50.30;;;;;;6301014;28;20236;-65
2023/06/02 07:07:24;;;;;;;9.80;8.80;;;33.20;48.50;;;;;;6300838;28;20240;-65
2023/06/02 07:10:27;;;;;;;10.00;9.10;;;33.80;46.40;;;;;;6291474;28;20378;-64
2023/06/02 07:13:31;;;;;;;9.88;8.98;;;34.40;44.90;;;;;;6300110;28;20317;-64
2023/06/02 07:16:35;;;;;;;10.20;9.20;;;34.90;43.50;;;;;;6300565;28;20262;-64
2023/06/02 07:19:39;;;;;;;10.30;8.32;;;35.50;42.80;;;;;;6300093;28;20245;-64
2023/06/02 07:22:42;;;;;;;10.15;8.70;;;36.00;41.00;;;;;;6300470;28;20305;-64
2023/06/02 07:25:45;;;;;;;10.75;9.38;;;36.80;39.20;;;;;;6300839;28;20218;-64
2023/06/02 07:28:48;;;;;;;9.93;8.57;;;37.50;37.50;;;;;;6300535;28;20202;-64
2023/06/02 07:31:53;;;;;;;8.82;7.93;;;37.90;35.70;;;;;;6300009;28;20664;-65
2023/06/02 07:34:56;;;;;;;8.95;8.15;;;38.30;34.50;;;;;;6300105;28;20217;-65
2023/06/02 07:38:00;;;;;;;8.85;7.78;;;38.80;33.80;;;;;;6299245;28;20222;-65
2023/06/02 07:41:03;;;;;;;8.63;7.82;;;39.30;32.10;;;;;;6298947;28;20238;-64
2023/06/02 07:44:07;;;;;;;8.68;7.80;;;39.80;31.20;;;;;;6299172;28;20225;-64
2023/06/02 07:47:11;;;;;;;7.53;6.78;;;40.00;30.10;;;;;;6299977;28;20244;-64
2023/06/02 07:50:15;;;;;;;8.68;7.85;;;39.90;31.10;;;;;;6300258;28;20320;-65
2023/06/02 07:53:18;;;;;;;8.40;7.68;;;39.60;30.00;;;;;;6300186;28;20237;-65
2023/06/02 07:56:24;;;;;;;8.27;7.53;;;38.90;30.90;;;;;;6300178;28;20236;-65
2023/06/02 07:59:27;;;;;;;8.73;7.90;;;38.00;30.60;;;;;;6300074;28;20226;-65
2023/06/02 08:02:32;;;;;;;9.05;8.18;;;37.20;33.70;;;;;;6299625;28;20237;-65
2023/06/02 08:05:35;;;;;;;8.02;7.38;;;36.50;33.60;;;;;;6298181;28;20226;-64
2023/06/02 08:08:38;;;;;;;15.95;8.43;;;35.80;33.80;;;;;;6296081;28;20704;-66
2023/06/02 08:11:42;;;;;;;11.45;8.60;;;35.00;40.00;;;;;;6294675;28;20245;-65
2023/06/02 08:14:45;;;;;;;8.38;7.50;;;34.20;36.00;;;;;;6298598;28;20848;-67
2023/06/02 08:17:50;;;;;;;9.15;7.60;;;33.60;38.10;;;;;;6300056;28;20238;-69
2023/06/02 08:20:53;;;;;;;8.02;7.20;;;33.20;38.50;;;;;;6298947;28;20280;-68
2023/06/02 08:23:56;;;;;;;8.85;8.05;;;32.60;37.50;;;;;;6299307;28;20547;-69
2023/06/02 08:27:00;;;;;;;9.35;8.45;;;32.00;38.20;;;;;;6298058;28;20230;-69
2023/06/02 08:30:04;;;;;;;8.40;7.65;;;31.60;40.20;;;;;;6297616;28;20234;-68
2023/06/02 08:33:09;;;;;;;12.30;6.70;;;31.40;41.00;;;;;;6299518;28;20327;-68
2023/06/02 08:36:17;;;;;;;7.43;6.85;;;31.20;39.80;;;;;;6300431;28;20222;-67
2023/06/02 08:39:21;;;;;;;9.57;6.90;;;31.00;39.80;;;;;;6297981;28;20226;-70
2023/06/02 08:42:27;;;;;;;6.97;6.47;;;30.80;40.00;;;;;;6297859;28;20233;-68
2023/06/02 08:45:30;;;;;;;7.50;6.90;;;30.70;39.90;;;;;;6299051;28;20658;-67
2023/06/02 08:48:36;;;;;;;7.25;6.40;;;30.40;40.10;;;;;;6296219;28;20229;-68
2023/06/02 08:51:40;;;;;;;10.15;8.23;;;30.30;44.20;;;;;;6298001;28;20230;-67
2023/06/02 08:54:45;;;;;;;8.90;8.07;;;30.10;44.40;;;;;;6299244;28;20226;-69
2023/06/02 08:57:48;;;;;;;11.48;7.70;;;30.00;46.10;;;;;;6298496;28;20232;-65
2023/06/02 09:00:51;;;;;;;7.97;7.38;;;30.10;42.20;;;;;;6298233;28;20218;-67
2023/06/02 09:03:56;;;;;;;7.88;7.07;;;30.20;41.60;;;;;;6298122;28;20310;-68
2023/06/02 09:07:16;;;;;;;8.60;7.47;;;30.10;41.50;;;;;;6298410;28;20280;-67
2023/06/02 09:10:40;;;;;;;8.73;7.53;;;30.10;42.80;;;;;;6297664;28;20307;-67
2023/06/02 09:13:43;;;;;;;7.80;7.00;;;30.10;41.70;;;;;;6298191;28;20236;-67
2023/06/02 09:16:46;;;;;;;8.27;7.35;;;30.20;41.90;;;;;;6299638;28;20235;-69
2023/06/02 09:19:53;;;;;;;10.13;7.72;;;30.30;41.40;;;;;;6302743;28;20540;-66
2023/06/02 09:22:58;;;;;;;7.30;6.70;;;30.40;42.00;;;;;;6302966;28;20186;-67
2023/06/02 09:26:01;;;;;;;7.60;7.00;;;30.60;41.00;;;;;;6302665;28;20221;-67
2023/06/02 09:29:15;;;;;;;8.80;7.93;;;30.60;40.40;;;;;;6301409;28;20240;-67
2023/06/02 09:32:18;;;;;;;7.82;7.13;;;30.50;40.40;;;;;;6299906;28;20244;-66
2023/06/02 09:35:37;;;;;;;10.32;7.20;;;30.40;41.00;;;;;;6300577;28;20226;-68
2023/06/02 09:38:43;;;;;;;7.90;7.13;;;30.40;40.80;;;;;;6300939;28;20260;-67
2023/06/02 09:41:46;;;;;;;11.70;7.57;;;30.40;41.50;;;;;;6300342;28;20363;-67
2023/06/02 09:45:03;;;;;;;8.05;7.35;;;30.40;43.20;;;;;;6325062;28;20564;-66
2023/06/02 09:48:18;;;;;;;8.33;7.60;;;30.00;44.60;;;;;;6326949;28;20984;-67
2023/06/02 09:51:24;;;;;;;8.63;7.68;;;30.00;45.90;;;;;;6326842;28;20234;-66
2023/06/02 09:54:28;;;;;;;7.13;6.63;;;30.10;45.40;;;;;;6327240;28;20308;-67
2023/06/02 09:57:32;;;;;;;8.32;7.65;;;30.10;45.40;;;;;;6327013;28;20661;-66
2023/06/02 10:00:36;;;;;;;9.47;8.60;;;29.80;46.30;;;;;;6326595;28;20729;-66
2023/06/02 10:03:43;;;;;;;9.00;7.50;;;29.20;47.50;;;;;;6326770;28;20676;-66
2023/06/02 10:07:13;;;;;;;7.77;6.93;;;29.10;48.00;;;;;;6326719;28;20245;-66
2023/06/02 10:10:26;;;;;;;7.00;6.40;;;28.60;46.20;;;;;;6314817;28;20306;-66
2023/06/02 10:13:59;;;;;;;5.90;5.30;;;28.30;44.30;;;;;;6301127;28;20748;-66
2023/06/02 10:17:14;;;;;;;6.63;4.63;;;28.10;41.90;;;;;;6300788;28;20561;-66
2023/06/02 10:20:25;;;;;;;8.93;5.33;;;28.00;40.60;;;;;;6300949;28;20238;-66
2023/06/02 10:23:47;;;;;;;4.83;4.43;;;27.60;41.50;;;;;;6301345;28;20226;-67
2023/06/02 10:27:05;;;;;;;6.30;5.23;;;27.50;42.30;;;;;;6300195;28;20241;-66
2023/06/02 10:30:09;;;;;;;5.90;5.30;;;27.50;43.40;;;;;;6300277;28;20236;-66
2023/06/02 10:33:12;;;;;;;6.00;5.50;;;27.40;43.90;;;;;;6300919;28;20226;-66
2023/06/02 10:36:17;;;;;;;5.53;5.13;;;27.30;44.90;;;;;;6300770;28;20230;-66
2023/06/02 10:39:52;;;;;;;6.13;5.07;;;27.30;45.10;;;;;;6289308;28;20310;-66
2023/06/02 10:43:13;;;;;;;6.13;5.50;;;27.20;45.60;;;;;;6275943;28;20235;-66
2023/06/02 10:46:21;;;;;;;6.73;5.90;;;27.10;46.00;;;;;;6275674;28;20341;-67
2023/06/02 10:49:51;;;;;;;7.03;6.23;;;26.90;46.80;;;;;;6275569;28;20231;-66
2023/06/02 10:53:09;;;;;;;6.57;5.83;;;26.50;47.00;;;;;;6275565;28;20337;-66
2023/06/02 10:56:46;;;;;;;8.43;6.00;;;25.40;49.30;;;;;;6275865;28;20300;-65
2023/06/02 10:59:49;;;;;;;7.10;6.50;;;25.00;50.60;;;;;;6275359;28;20227;-65
2023/06/02 11:02:53;;;;;;;7.13;6.30;;;24.50;51.70;;;;;;6275681;28;20333;-64
2023/06/02 11:06:24;;;;;;;6.87;6.27;;;24.10;52.60;;;;;;6275010;28;20231;-66
2023/06/02 11:09:34;;;;;;;6.13;5.63;;;24.10;52.60;;;;;;6280595;28;20246;-64
2023/06/02 11:13:05;;;;;;;6.97;6.33;;;23.80;52.80;;;;;;6299438;28;20250;-64
2023/06/02 11:16:15;;;;;;;5.70;5.20;;;23.80;53.50;;;;;;6290840;28;20669;-66
2023/06/02 11:19:49;;;;;;;9.87;6.00;;;23.90;53.50;;;;;;6299655;28;20674;-66
2023/06/02 11:23:03;;;;;;;7.47;5.37;;;24.00;53.30;;;;;;6294721;28;20206;-67
2023/06/02 11:26:08;;;;;;;5.40;4.90;;;24.00;52.90;;;;;;6299862;28;20187;-67
2023/06/02 11:29:18;;;;;;;6.77;6.17;;;23.90;52.90;;;;;;6299356;28;20368;-67
2023/06/02 11:32:22;;;;;;;7.30;5.80;;;24.00;53.40;;;;;;6298988;28;20227;-66
2023/06/02 11:35:27;;;;;;;9.83;5.53;;;24.10;53.50;;;;;;6298852;28;20698;-66
2023/06/02 11:38:32;;;;;;;7.30;5.33;;;24.20;53.60;;;;;;6299039;28;20311;-66
2023/06/02 11:41:36;;;;;;;7.67;6.17;;;24.40;53.70;;;;;;6298642;28;20227;-66
2023/06/02 11:44:49;;;;;;;5.90;5.40;;;24.70;53.50;;;;;;6299203;28;20238;-66
2023/06/02 11:48:05;;;;;;;5.87;5.37;;;25.00;52.80;;;;;;6299515;28;20315;-67
2023/06/02 11:51:10;;;;;;;6.80;6.17;;;25.30;52.20;;;;;;6299679;28;20245;-67
2023/06/02 11:54:13;;;;;;;6.90;6.10;;;25.60;51.80;;;;;;6299086;28;20305;-65
2023/06/02 11:57:27;;;;;;;6.30;5.80;;;26.10;51.20;;;;;;6298530;28;20242;-65
2023/06/02 12:00:34;;;;;;;6.27;5.77;;;26.50;50.30;;;;;;6299204;28;20240;-67
2023/06/02 12:03:38;;;;;;;5.57;5.07;;;26.90;49.70;;;;;;6298900;28;20226;-67
2023/06/02 12:06:47;;;;;;;6.53;5.37;;;27.10;48.30;;;;;;6299011;28;20317;-66
2023/06/02 12:09:50;;;;;;;5.77;5.20;;;27.10;48.10;;;;;;6298921;28;20300;-66
2023/06/02 12:12:53;;;;;;;5.40;5.00;;;26.90;48.40;;;;;;6298325;28;20218;-67
2023/06/02 12:16:18;;;;;;;5.67;5.00;;;27.40;47.70;;;;;;6299163;28;20316;-66
2023/06/02 12:19:24;;;;;;;4.90;4.50;;;27.90;46.50;;;;;;6298647;28;20237;-66
2023/06/02 12:22:27;;;;;;;5.80;4.43;;;28.10;44.40;;;;;;6299131;28;20226;-66
2023/06/02 12:25:30;;;;;;;5.80;5.30;;;28.30;44.70;;;;;;6298398;28;20689;-67
2023/06/02 12:28:33;;;;;;;4.90;4.50;;;28.60;44.20;;;;;;6298756;28;20219;-66
2023/06/02 12:31:38;;;;;;;5.70;5.10;;;28.70;43.50;;;;;;6297406;28;20233;-66
2023/06/02 12:34:43;;;;;;;5.30;4.80;;;28.60;44.60;;;;;;6298963;28;20285;-66
2023/06/02 12:37:46;;;;;;;5.90;5.40;;;28.90;44.90;;;;;;6298119;28;20268;-66
2023/06/02 12:40:49;;;;;;;6.60;6.00;;;29.00;44.00;;;;;;6296327;28;20234;-68
2023/06/02 12:43:53;;;;;;;8.03;6.67;;;29.10;43.90;;;;;;6297225;28;20351;-67
2023/06/02 12:46:57;;;;;;;6.40;5.73;;;28.90;44.40;;;;;;6298502;28;20202;-67
2023/06/02 12:50:04;;;;;;;7.77;6.47;;;28.80;45.10;;;;;;6297891;28;20225;-70
2023/06/02 12:53:07;;;;;;;5.60;5.10;;;28.50;44.20;;;;;;6303509;28;20195;-68
2023/06/02 12:56:10;;;;;;;7.83;6.13;;;28.50;44.50;;;;;;6303079;28;20657;-66
2023/06/02 12:59:13;;;;;;;6.37;5.87;;;28.50;45.30;;;;;;6302667;28;20695;-68
2023/06/02 13:02:18;;;;;;;7.27;6.20;;;28.60;45.20;;;;;;6302787;28;20229;-67
2023/06/02 13:05:23;;;;;;;6.00;5.50;;;28.70;45.30;;;;;;6302367;28;20305;-71
2023/06/02 13:08:27;;;;;;;5.80;5.27;;;28.00;45.00;;;;;;6302122;28;20241;-68
2023/06/02 13:11:30;;;;;;;7.30;5.17;;;27.20;46.80;;;;;;6302439;28;20244;-68
2023/06/02 13:14:34;;;;;;;5.40;5.00;;;27.20;47.00;;;;;;6303233;28;20263;-71
2023/06/02 13:17:38;;;;;;;5.20;4.80;;;27.00;47.70;;;;;;6302372;28;20226;-68
2023/06/02 13:20:41;;;;;;;6.03;5.53;;;27.30;48.20;;;;;;6302377;28;20229;-69
2023/06/02 13:23:52;;;;;;;5.60;5.20;;;27.50;47.60;;;;;;6302432;28;20222;-69
2023/06/02 13:26:56;;;;;;;5.97;5.47;;;27.60;47.10;;;;;;6302759;28;20222;-70
2023/06/02 13:29:59;;;;;;;5.43;4.93;;;27.90;47.20;;;;;;6302648;28;20230;-69
2023/06/02 13:33:04;;;;;;;5.83;5.40;;;27.90;46.50;;;;;;6297861;28;20276;-66
2023/06/02 13:36:08;;;;;;;5.60;5.10;;;27.90;46.30;;;;;;6301497;28;20245;-67
2023/06/02 13:39:11;;;;;;;6.40;5.40;;;27.90;45.80;;;;;;6301630;28;20226;-67
2023/06/02 13:42:14;;;;;;;6.13;5.63;;;27.60;45.80;;;;;;6301829;28;20238;-67
2023/06/02 13:45:18;;;;;;;5.07;4.67;;;27.30;46.10;;;;;;6301403;28;20262;-67
2023/06/02 13:48:22;;;;;;;6.03;5.53;;;27.30;46.30;;;;;;6300773;28;20230;-67
2023/06/02 13:51:27;;;;;;;6.00;5.40;;;27.50;45.60;;;;;;6300641;28;20234;-67
2023/06/02 13:54:30;;;;;;;5.80;5.37;;;27.50;46.30;;;;;;6300706;28;20241;-67
2023/06/02 13:57:34;;;;;;;6.10;5.60;;;27.40;46.80;;;;;;6300686;28;20254;-67
2023/06/02 14:00:40;;;;;;;6.70;6.10;;;27.60;46.90;;;;;;6301435;28;20222;-68
2023/06/02 14:03:45;;;;;;;6.07;5.57;;;27.90;46.10;;;;;;6301426;28;20230;-67
2023/06/02 14:06:48;;;;;;;6.33;5.73;;;28.00;45.70;;;;;;6301430;28;20230;-68
2023/06/02 14:09:51;;;;;;;5.40;4.97;;;28.00;46.20;;;;;;6301427;28;20230;-67
2023/06/02 14:12:54;;;;;;;6.57;5.80;;;27.90;46.10;;;;;;6301650;28;20227;-68
2023/06/02 14:15:58;;;;;;;5.60;5.10;;;28.10;47.30;;;;;;6301437;28;20226;-68
2023/06/02 14:19:03;;;;;;;4.70;4.30;;;28.00;46.40;;;;;;6301446;28;20563;-66
2023/06/02 14:22:06;;;;;;;5.20;4.70;;;27.90;46.10;;;;;;6300898;28;20226;-67
2023/06/02 14:25:10;;;;;;;4.97;4.53;;;27.60;46.40;;;;;;6301143;28;20264;-69
2023/06/02 14:28:13;;;;;;;5.80;5.20;;;27.60;46.70;;;;;;6301175;28;20226;-67
2023/06/02 14:31:18;;;;;;;4.50;4.10;;;27.40;46.70;;;;;;6300225;28;20233;-68
2023/06/02 14:34:23;;;;;;;6.30;4.73;;;27.20;46.60;;;;;;6300957;28;20234;-68
2023/06/02 14:37:26;;;;;;;5.17;4.73;;;27.20;45.80;;;;;;6297011;28;20287;-67
2023/06/02 14:40:29;;;;;;;4.60;4.30;;;27.20;46.70;;;;;;6300305;28;20371;-69
2023/06/02 14:43:32;;;;;;;4.90;4.50;;;27.20;47.30;;;;;;6300916;28;20267;-68
2023/06/02 14:46:35;;;;;;;5.40;4.90;;;27.20;46.90;;;;;;6300726;28;20226;-67
2023/06/02 14:49:40;;;;;;;5.83;5.43;;;27.20;46.90;;;;;;6300376;28;20611;-68
2023/06/02 14:52:45;;;;;;;6.20;5.70;;;27.10;47.30;;;;;;6300567;28;20309;-67
2023/06/02 14:55:48;;;;;;;5.60;4.73;;;27.00;46.90;;;;;;6300706;28;20233;-68
2023/06/02 14:58:52;;;;;;;6.03;5.53;;;27.10;47.30;;;;;;6299845;28;20708;-69
2023/06/02 15:02:12;;;;;;;6.00;5.40;;;26.90;48.00;;;;;;6300353;28;20222;-67
2023/06/02 15:05:16;;;;;;;5.77;5.17;;;27.00;48.60;;;;;;6300349;28;20221;-66
2023/06/02 15:08:19;;;;;;;4.93;4.60;;;27.00;49.00;;;;;;6300367;28;20218;-68
2023/06/02 15:11:25;;;;;;;5.10;4.70;;;27.00;47.50;;;;;;6300529;28;20234;-67
2023/06/02 15:14:28;;;;;;;5.23;4.73;;;26.90;48.20;;;;;;6299006;28;20229;-66
2023/06/02 15:17:31;;;;;;;4.47;4.17;;;27.00;48.10;;;;;;6300318;28;20268;-68
2023/06/02 15:20:36;;;;;;;6.37;4.30;;;27.00;48.00;;;;;;6300009;28;20697;-67
2023/06/02 15:23:39;;;;;;;5.00;4.43;;;26.90;47.10;;;;;;6299711;28;20234;-68
2023/06/02 15:26:43;;;;;;;4.70;4.30;;;26.70;47.70;;;;;;6300077;28;20682;-68
2023/06/02 15:29:47;;;;;;;5.13;4.73;;;26.70;48.30;;;;;;6299900;28;20654;-67
2023/06/02 15:32:50;;;;;;;5.13;4.73;;;26.50;49.20;;;;;;6298416;28;20226;-68
2023/06/02 15:35:55;;;;;;;6.53;5.50;;;26.40;49.90;;;;;;6297576;28;20230;-67
2023/06/02 15:38:58;;;;;;;5.40;4.90;;;26.40;51.10;;;;;;6298700;28;20222;-67
2023/06/02 15:42:01;;;;;;;5.83;5.13;;;26.30;51.80;;;;;;6298849;28;20234;-68
2023/06/02 15:45:05;;;;;;;5.70;5.20;;;26.30;52.10;;;;;;6299145;28;20579;-65
2023/06/02 15:48:08;;;;;;;4.90;4.40;;;26.30;52.60;;;;;;6299239;28;20685;-65
2023/06/02 15:51:13;;;;;;;5.13;4.73;;;26.30;52.40;;;;;;6298804;28;20320;-66
2023/06/02 15:54:16;;;;;;;5.20;4.70;;;26.30;52.10;;;;;;6299505;28;20240;-66
2023/06/02 15:57:19;;;;;;;5.00;4.57;;;26.30;51.20;;;;;;6298868;28;20611;-65
2023/06/02 16:00:23;;;;;;;4.50;4.10;;;26.20;51.10;;;;;;6298992;28;20237;-66